sensor_id;sensor_type;location;lat;lon;timestamp;P1;durP1;ratioP1;P2;durP2;ratioP2
14209;SDS011;7188;56.070;12.698;2024-01-25T00:01:42;41.93;;;5.83;;
14209;SDS011;7188;56.070;12.698;2024-01-25T00:04:08;33.30;;;6.60;;
14209;SDS011;7188;56.070;12.698;2024-01-25T00:06:33;36.40;;;7.40;;
14209;SDS011;7188;56.070;12.698;2024-01-25T00:09:00;33.97;;;5.53;;
14209;SDS011;7188;56.070;12.698;2024-01-25T00:11:26;35.03;;;6.30;;
14209;SDS011;7188;56.070;12.698;2024-01-25T00:13:51;33.20;;;6.47;;
14209;SDS011;7188;56.070;12.698;2024-01-25T00:16:17;29.43;;;5.30;;
14209;SDS011;7188;56.070;12.698;2024-01-25T00:18:43;41.03;;;5.00;;
14209;SDS011;7188;56.070;12.698;2024-01-25T00:21:08;30.10;;;5.67;;
14209;SDS011;7188;56.070;12.698;2024-01-25T00:23:46;32.47;;;6.33;;
14209;SDS011;7188;56.070;12.698;2024-01-25T00:26:12;38.40;;;6.17;;
14209;SDS011;7188;56.070;12.698;2024-01-25T00:28:38;32.20;;;7.10;;
14209;SDS011;7188;56.070;12.698;2024-01-25T00:31:03;40.00;;;6.43;;
14209;SDS011;7188;56.070;12.698;2024-01-25T00:33:29;42.53;;;7.17;;
14209;SDS011;7188;56.070;12.698;2024-01-25T00:35:55;28.80;;;5.90;;
14209;SDS011;7188;56.070;12.698;2024-01-25T00:38:21;33.90;;;7.20;;
14209;SDS011;7188;56.070;12.698;2024-01-25T00:40:47;40.33;;;7.47;;
14209;SDS011;7188;56.070;12.698;2024-01-25T00:43:13;45.23;;;6.77;;
14209;SDS011;7188;56.070;12.698;2024-01-25T00:45:39;39.63;;;7.07;;
14209;SDS011;7188;56.070;12.698;2024-01-25T00:48:05;43.50;;;7.67;;
14209;SDS011;7188;56.070;12.698;2024-01-25T00:50:31;47.53;;;7.70;;
14209;SDS011;7188;56.070;12.698;2024-01-25T00:52:57;38.37;;;6.63;;
14209;SDS011;7188;56.070;12.698;2024-01-25T00:55:23;38.60;;;6.93;;
14209;SDS011;7188;56.070;12.698;2024-01-25T00:57:49;48.60;;;8.07;;
14209;SDS011;7188;56.070;12.698;2024-01-25T01:00:16;48.87;;;7.60;;
14209;SDS011;7188;56.070;12.698;2024-01-25T01:02:43;34.73;;;8.07;;
14209;SDS011;7188;56.070;12.698;2024-01-25T01:05:10;36.80;;;6.87;;
14209;SDS011;7188;56.070;12.698;2024-01-25T01:07:36;41.83;;;6.90;;
14209;SDS011;7188;56.070;12.698;2024-01-25T01:10:04;35.97;;;7.20;;
14209;SDS011;7188;56.070;12.698;2024-01-25T01:12:30;49.47;;;7.90;;
14209;SDS011;7188;56.070;12.698;2024-01-25T01:14:55;46.57;;;8.70;;
14209;SDS011;7188;56.070;12.698;2024-01-25T01:17:21;50.50;;;7.67;;
14209;SDS011;7188;56.070;12.698;2024-01-25T01:19:47;37.27;;;7.37;;
14209;SDS011;7188;56.070;12.698;2024-01-25T01:22:12;42.20;;;7.90;;
14209;SDS011;7188;56.070;12.698;2024-01-25T01:27:32;51.77;;;7.73;;
14209;SDS011;7188;56.070;12.698;2024-01-25T01:29:58;46.57;;;8.23;;
14209;SDS011;7188;56.070;12.698;2024-01-25T01:32:23;44.77;;;9.57;;
14209;SDS011;7188;56.070;12.698;2024-01-25T01:34:49;48.13;;;8.00;;
14209;SDS011;7188;56.070;12.698;2024-01-25T01:37:15;46.73;;;8.30;;
14209;SDS011;7188;56.070;12.698;2024-01-25T01:39:40;51.67;;;8.63;;
14209;SDS011;7188;56.070;12.698;2024-01-25T01:42:06;56.83;;;9.47;;
14209;SDS011;7188;56.070;12.698;2024-01-25T01:44:32;43.37;;;8.40;;
14209;SDS011;7188;56.070;12.698;2024-01-25T01:46:57;49.63;;;8.07;;
14209;SDS011;7188;56.070;12.698;2024-01-25T01:49:23;49.77;;;8.23;;
14209;SDS011;7188;56.070;12.698;2024-01-25T01:51:49;37.27;;;8.97;;
14209;SDS011;7188;56.070;12.698;2024-01-25T01:54:15;47.27;;;7.30;;
14209;SDS011;7188;56.070;12.698;2024-01-25T01:56:41;44.60;;;10.77;;
14209;SDS011;7188;56.070;12.698;2024-01-25T01:59:09;46.33;;;8.33;;
14209;SDS011;7188;56.070;12.698;2024-01-25T02:01:36;51.07;;;8.10;;
14209;SDS011;7188;56.070;12.698;2024-01-25T02:04:03;36.30;;;8.30;;
14209;SDS011;7188;56.070;12.698;2024-01-25T02:06:29;45.13;;;9.20;;
14209;SDS011;7188;56.070;12.698;2024-01-25T02:08:55;46.63;;;7.97;;
14209;SDS011;7188;56.070;12.698;2024-01-25T02:11:24;48.87;;;8.37;;
14209;SDS011;7188;56.070;12.698;2024-01-25T02:13:50;56.53;;;8.60;;
14209;SDS011;7188;56.070;12.698;2024-01-25T02:16:16;44.10;;;9.03;;
14209;SDS011;7188;56.070;12.698;2024-01-25T02:18:42;43.27;;;9.33;;
14209;SDS011;7188;56.070;12.698;2024-01-25T02:21:08;43.10;;;7.67;;
14209;SDS011;7188;56.070;12.698;2024-01-25T02:23:34;48.77;;;9.43;;
14209;SDS011;7188;56.070;12.698;2024-01-25T02:26:00;45.67;;;7.67;;
14209;SDS011;7188;56.070;12.698;2024-01-25T02:28:25;48.67;;;8.80;;
14209;SDS011;7188;56.070;12.698;2024-01-25T02:30:51;63.43;;;9.37;;
14209;SDS011;7188;56.070;12.698;2024-01-25T02:33:17;52.93;;;10.17;;
14209;SDS011;7188;56.070;12.698;2024-01-25T02:35:42;57.33;;;8.77;;
14209;SDS011;7188;56.070;12.698;2024-01-25T02:38:08;56.20;;;8.57;;
14209;SDS011;7188;56.070;12.698;2024-01-25T02:40:46;47.87;;;8.17;;
14209;SDS011;7188;56.070;12.698;2024-01-25T02:43:12;55.20;;;9.60;;
14209;SDS011;7188;56.070;12.698;2024-01-25T02:45:37;58.93;;;9.67;;
14209;SDS011;7188;56.070;12.698;2024-01-25T02:48:03;62.70;;;10.37;;
14209;SDS011;7188;56.070;12.698;2024-01-25T02:50:29;49.97;;;9.33;;
14209;SDS011;7188;56.070;12.698;2024-01-25T02:52:55;51.60;;;8.33;;
14209;SDS011;7188;56.070;12.698;2024-01-25T02:55:21;46.47;;;9.27;;
14209;SDS011;7188;56.070;12.698;2024-01-25T02:57:47;54.03;;;10.17;;
14209;SDS011;7188;56.070;12.698;2024-01-25T03:00:13;56.37;;;9.40;;
14209;SDS011;7188;56.070;12.698;2024-01-25T03:02:39;41.23;;;7.80;;
14209;SDS011;7188;56.070;12.698;2024-01-25T03:05:04;39.43;;;9.43;;
14209;SDS011;7188;56.070;12.698;2024-01-25T03:07:30;49.50;;;9.20;;
14209;SDS011;7188;56.070;12.698;2024-01-25T03:09:56;53.60;;;8.87;;
14209;SDS011;7188;56.070;12.698;2024-01-25T03:12:21;54.03;;;8.87;;
14209;SDS011;7188;56.070;12.698;2024-01-25T03:14:47;47.40;;;8.53;;
14209;SDS011;7188;56.070;12.698;2024-01-25T03:17:13;50.20;;;10.60;;
14209;SDS011;7188;56.070;12.698;2024-01-25T03:19:39;51.47;;;8.73;;
14209;SDS011;7188;56.070;12.698;2024-01-25T03:22:05;53.33;;;9.10;;
14209;SDS011;7188;56.070;12.698;2024-01-25T03:24:30;50.37;;;9.33;;
14209;SDS011;7188;56.070;12.698;2024-01-25T03:26:56;42.90;;;8.77;;
14209;SDS011;7188;56.070;12.698;2024-01-25T03:29:22;50.43;;;7.90;;
14209;SDS011;7188;56.070;12.698;2024-01-25T03:31:48;49.23;;;8.53;;
14209;SDS011;7188;56.070;12.698;2024-01-25T03:34:15;55.47;;;9.47;;
14209;SDS011;7188;56.070;12.698;2024-01-25T03:36:40;50.67;;;10.23;;
14209;SDS011;7188;56.070;12.698;2024-01-25T03:39:06;60.97;;;10.40;;
14209;SDS011;7188;56.070;12.698;2024-01-25T03:41:32;49.03;;;8.53;;
14209;SDS011;7188;56.070;12.698;2024-01-25T03:43:58;53.77;;;8.47;;
14209;SDS011;7188;56.070;12.698;2024-01-25T03:46:24;59.40;;;8.67;;
14209;SDS011;7188;56.070;12.698;2024-01-25T03:48:49;49.77;;;8.80;;
14209;SDS011;7188;56.070;12.698;2024-01-25T03:51:33;63.17;;;10.27;;
14209;SDS011;7188;56.070;12.698;2024-01-25T03:53:59;55.90;;;10.07;;
14209;SDS011;7188;56.070;12.698;2024-01-25T03:56:24;45.80;;;9.13;;
14209;SDS011;7188;56.070;12.698;2024-01-25T03:58:51;51.17;;;8.40;;
14209;SDS011;7188;56.070;12.698;2024-01-25T04:01:17;47.93;;;8.40;;
14209;SDS011;7188;56.070;12.698;2024-01-25T04:03:46;55.10;;;9.57;;
14209;SDS011;7188;56.070;12.698;2024-01-25T04:06:11;56.80;;;10.13;;
14209;SDS011;7188;56.070;12.698;2024-01-25T04:08:37;45.83;;;8.50;;
14209;SDS011;7188;56.070;12.698;2024-01-25T04:11:03;55.53;;;10.07;;
14209;SDS011;7188;56.070;12.698;2024-01-25T04:13:29;49.67;;;10.20;;
14209;SDS011;7188;56.070;12.698;2024-01-25T04:15:54;45.27;;;9.10;;
14209;SDS011;7188;56.070;12.698;2024-01-25T04:18:20;50.17;;;8.87;;
14209;SDS011;7188;56.070;12.698;2024-01-25T04:23:43;44.70;;;6.83;;
14209;SDS011;7188;56.070;12.698;2024-01-25T04:29:19;45.53;;;9.60;;
14209;SDS011;7188;56.070;12.698;2024-01-25T04:31:45;50.10;;;10.77;;
14209;SDS011;7188;56.070;12.698;2024-01-25T04:34:14;43.33;;;7.50;;
14209;SDS011;7188;56.070;12.698;2024-01-25T04:36:40;62.10;;;8.57;;
14209;SDS011;7188;56.070;12.698;2024-01-25T04:39:06;46.90;;;7.23;;
14209;SDS011;7188;56.070;12.698;2024-01-25T04:41:32;39.20;;;7.37;;
14209;SDS011;7188;56.070;12.698;2024-01-25T04:43:58;43.60;;;6.97;;
14209;SDS011;7188;56.070;12.698;2024-01-25T04:46:23;38.57;;;7.90;;
14209;SDS011;7188;56.070;12.698;2024-01-25T04:48:49;43.90;;;6.97;;
14209;SDS011;7188;56.070;12.698;2024-01-25T04:51:18;35.53;;;6.90;;
14209;SDS011;7188;56.070;12.698;2024-01-25T04:53:47;38.57;;;8.43;;
14209;SDS011;7188;56.070;12.698;2024-01-25T04:56:13;40.13;;;7.30;;
14209;SDS011;7188;56.070;12.698;2024-01-25T04:58:39;36.10;;;7.53;;
14209;SDS011;7188;56.070;12.698;2024-01-25T05:01:05;59.00;;;8.93;;
14209;SDS011;7188;56.070;12.698;2024-01-25T05:03:35;50.80;;;7.27;;
14209;SDS011;7188;56.070;12.698;2024-01-25T05:06:00;48.13;;;7.20;;
14209;SDS011;7188;56.070;12.698;2024-01-25T05:08:26;46.87;;;7.07;;
14209;SDS011;7188;56.070;12.698;2024-01-25T05:10:52;36.50;;;6.90;;
14209;SDS011;7188;56.070;12.698;2024-01-25T05:13:18;36.60;;;7.33;;
14209;SDS011;7188;56.070;12.698;2024-01-25T05:15:44;35.90;;;7.07;;
14209;SDS011;7188;56.070;12.698;2024-01-25T05:18:09;43.60;;;6.23;;
14209;SDS011;7188;56.070;12.698;2024-01-25T05:20:35;45.47;;;7.33;;
14209;SDS011;7188;56.070;12.698;2024-01-25T05:23:02;45.33;;;6.23;;
14209;SDS011;7188;56.070;12.698;2024-01-25T05:25:38;34.47;;;6.63;;
14209;SDS011;7188;56.070;12.698;2024-01-25T05:28:03;34.80;;;6.50;;
14209;SDS011;7188;56.070;12.698;2024-01-25T05:30:29;36.70;;;6.53;;
14209;SDS011;7188;56.070;12.698;2024-01-25T05:32:55;37.40;;;6.13;;
14209;SDS011;7188;56.070;12.698;2024-01-25T05:35:21;36.47;;;6.70;;
14209;SDS011;7188;56.070;12.698;2024-01-25T05:37:46;38.93;;;6.27;;
14209;SDS011;7188;56.070;12.698;2024-01-25T05:40:12;48.10;;;7.37;;
14209;SDS011;7188;56.070;12.698;2024-01-25T05:42:38;33.27;;;6.00;;
14209;SDS011;7188;56.070;12.698;2024-01-25T05:45:04;42.67;;;7.07;;
14209;SDS011;7188;56.070;12.698;2024-01-25T05:47:30;36.50;;;6.23;;
14209;SDS011;7188;56.070;12.698;2024-01-25T05:49:56;30.80;;;5.67;;
14209;SDS011;7188;56.070;12.698;2024-01-25T05:52:22;41.17;;;6.93;;
14209;SDS011;7188;56.070;12.698;2024-01-25T05:54:49;29.73;;;6.73;;
14209;SDS011;7188;56.070;12.698;2024-01-25T05:57:15;36.50;;;6.77;;
14209;SDS011;7188;56.070;12.698;2024-01-25T05:59:42;33.30;;;5.83;;
14209;SDS011;7188;56.070;12.698;2024-01-25T06:02:08;36.20;;;5.53;;
14209;SDS011;7188;56.070;12.698;2024-01-25T06:04:34;47.43;;;7.23;;
14209;SDS011;7188;56.070;12.698;2024-01-25T06:07:00;36.03;;;6.00;;
14209;SDS011;7188;56.070;12.698;2024-01-25T06:09:31;30.20;;;6.67;;
14209;SDS011;7188;56.070;12.698;2024-01-25T06:11:57;35.67;;;5.20;;
14209;SDS011;7188;56.070;12.698;2024-01-25T06:14:23;29.80;;;5.30;;
14209;SDS011;7188;56.070;12.698;2024-01-25T06:16:49;41.13;;;7.20;;
14209;SDS011;7188;56.070;12.698;2024-01-25T06:19:15;38.13;;;6.10;;
14209;SDS011;7188;56.070;12.698;2024-01-25T06:21:40;36.13;;;5.97;;
14209;SDS011;7188;56.070;12.698;2024-01-25T06:24:06;29.97;;;5.70;;
14209;SDS011;7188;56.070;12.698;2024-01-25T06:26:32;31.13;;;5.50;;
14209;SDS011;7188;56.070;12.698;2024-01-25T06:28:58;29.27;;;6.20;;
14209;SDS011;7188;56.070;12.698;2024-01-25T06:31:24;30.60;;;6.17;;
14209;SDS011;7188;56.070;12.698;2024-01-25T06:33:50;29.27;;;5.50;;
14209;SDS011;7188;56.070;12.698;2024-01-25T06:36:18;42.37;;;6.47;;
14209;SDS011;7188;56.070;12.698;2024-01-25T06:38:44;24.17;;;4.00;;
14209;SDS011;7188;56.070;12.698;2024-01-25T06:41:10;30.03;;;4.60;;
14209;SDS011;7188;56.070;12.698;2024-01-25T06:43:35;34.70;;;6.33;;
14209;SDS011;7188;56.070;12.698;2024-01-25T06:46:01;38.83;;;4.80;;
14209;SDS011;7188;56.070;12.698;2024-01-25T06:48:27;33.30;;;6.00;;
14209;SDS011;7188;56.070;12.698;2024-01-25T06:50:53;34.43;;;5.27;;
14209;SDS011;7188;56.070;12.698;2024-01-25T06:53:19;30.80;;;4.77;;
14209;SDS011;7188;56.070;12.698;2024-01-25T06:55:45;32.27;;;6.90;;
14209;SDS011;7188;56.070;12.698;2024-01-25T06:58:11;30.73;;;5.67;;
14209;SDS011;7188;56.070;12.698;2024-01-25T07:00:38;25.53;;;4.63;;
14209;SDS011;7188;56.070;12.698;2024-01-25T07:03:04;25.93;;;4.83;;
14209;SDS011;7188;56.070;12.698;2024-01-25T07:05:30;31.53;;;5.57;;
14209;SDS011;7188;56.070;12.698;2024-01-25T07:07:58;31.50;;;4.60;;
14209;SDS011;7188;56.070;12.698;2024-01-25T07:10:24;22.50;;;4.53;;
14209;SDS011;7188;56.070;12.698;2024-01-25T07:12:50;30.17;;;5.50;;
14209;SDS011;7188;56.070;12.698;2024-01-25T07:15:17;24.10;;;5.33;;
14209;SDS011;7188;56.070;12.698;2024-01-25T07:17:43;28.60;;;4.47;;
14209;SDS011;7188;56.070;12.698;2024-01-25T07:20:09;27.00;;;5.17;;
14209;SDS011;7188;56.070;12.698;2024-01-25T07:22:35;29.70;;;4.87;;
14209;SDS011;7188;56.070;12.698;2024-01-25T07:25:01;28.00;;;5.00;;
14209;SDS011;7188;56.070;12.698;2024-01-25T07:27:26;37.27;;;5.30;;
14209;SDS011;7188;56.070;12.698;2024-01-25T07:29:52;27.73;;;4.30;;
14209;SDS011;7188;56.070;12.698;2024-01-25T07:32:18;31.30;;;6.20;;
14209;SDS011;7188;56.070;12.698;2024-01-25T07:34:44;26.60;;;4.53;;
14209;SDS011;7188;56.070;12.698;2024-01-25T07:37:10;26.57;;;4.27;;
14209;SDS011;7188;56.070;12.698;2024-01-25T07:39:36;35.00;;;5.90;;
14209;SDS011;7188;56.070;12.698;2024-01-25T07:42:02;26.83;;;5.53;;
14209;SDS011;7188;56.070;12.698;2024-01-25T07:44:28;36.60;;;6.93;;
14209;SDS011;7188;56.070;12.698;2024-01-25T07:46:54;35.60;;;4.30;;
14209;SDS011;7188;56.070;12.698;2024-01-25T07:49:20;27.97;;;4.27;;
14209;SDS011;7188;56.070;12.698;2024-01-25T07:51:45;29.30;;;3.60;;
14209;SDS011;7188;56.070;12.698;2024-01-25T07:54:11;19.80;;;3.23;;
14209;SDS011;7188;56.070;12.698;2024-01-25T07:56:37;20.10;;;3.83;;
14209;SDS011;7188;56.070;12.698;2024-01-25T07:59:03;21.40;;;3.87;;
14209;SDS011;7188;56.070;12.698;2024-01-25T08:01:28;22.33;;;3.73;;
14209;SDS011;7188;56.070;12.698;2024-01-25T08:03:54;23.50;;;3.90;;
14209;SDS011;7188;56.070;12.698;2024-01-25T08:06:20;15.83;;;3.40;;
14209;SDS011;7188;56.070;12.698;2024-01-25T08:08:47;18.97;;;2.83;;
14209;SDS011;7188;56.070;12.698;2024-01-25T08:11:13;14.73;;;2.90;;
14209;SDS011;7188;56.070;12.698;2024-01-25T08:13:43;19.33;;;3.70;;
14209;SDS011;7188;56.070;12.698;2024-01-25T08:16:09;15.43;;;2.77;;
14209;SDS011;7188;56.070;12.698;2024-01-25T08:18:36;18.40;;;2.93;;
14209;SDS011;7188;56.070;12.698;2024-01-25T08:21:01;17.13;;;2.63;;
14209;SDS011;7188;56.070;12.698;2024-01-25T08:23:27;19.87;;;3.00;;
14209;SDS011;7188;56.070;12.698;2024-01-25T08:25:53;18.97;;;2.07;;
14209;SDS011;7188;56.070;12.698;2024-01-25T08:28:19;15.93;;;2.80;;
14209;SDS011;7188;56.070;12.698;2024-01-25T08:30:45;14.37;;;2.57;;
14209;SDS011;7188;56.070;12.698;2024-01-25T08:33:11;19.50;;;2.90;;
14209;SDS011;7188;56.070;12.698;2024-01-25T08:35:36;23.43;;;3.60;;
14209;SDS011;7188;56.070;12.698;2024-01-25T08:38:02;19.03;;;2.53;;
14209;SDS011;7188;56.070;12.698;2024-01-25T08:40:28;8.00;;;1.90;;
14209;SDS011;7188;56.070;12.698;2024-01-25T08:42:54;10.70;;;1.83;;
14209;SDS011;7188;56.070;12.698;2024-01-25T08:45:20;7.87;;;2.17;;
14209;SDS011;7188;56.070;12.698;2024-01-25T08:47:45;4.67;;;1.47;;
14209;SDS011;7188;56.070;12.698;2024-01-25T08:50:11;4.93;;;1.73;;
14209;SDS011;7188;56.070;12.698;2024-01-25T08:52:37;8.00;;;1.97;;
14209;SDS011;7188;56.070;12.698;2024-01-25T08:55:05;7.07;;;1.70;;
14209;SDS011;7188;56.070;12.698;2024-01-25T08:57:32;7.40;;;1.97;;
14209;SDS011;7188;56.070;12.698;2024-01-25T08:59:57;6.63;;;1.57;;
14209;SDS011;7188;56.070;12.698;2024-01-25T09:02:26;4.80;;;1.57;;
14209;SDS011;7188;56.070;12.698;2024-01-25T09:04:54;6.83;;;1.53;;
14209;SDS011;7188;56.070;12.698;2024-01-25T09:10:15;3.93;;;1.60;;
14209;SDS011;7188;56.070;12.698;2024-01-25T09:12:41;7.73;;;1.50;;
14209;SDS011;7188;56.070;12.698;2024-01-25T09:15:07;5.40;;;1.53;;
14209;SDS011;7188;56.070;12.698;2024-01-25T09:17:33;8.17;;;1.70;;
14209;SDS011;7188;56.070;12.698;2024-01-25T09:19:59;4.93;;;1.23;;
14209;SDS011;7188;56.070;12.698;2024-01-25T09:22:25;5.67;;;1.63;;
14209;SDS011;7188;56.070;12.698;2024-01-25T09:24:50;7.70;;;1.27;;
14209;SDS011;7188;56.070;12.698;2024-01-25T09:27:16;2.40;;;0.93;;
14209;SDS011;7188;56.070;12.698;2024-01-25T09:29:42;6.57;;;2.43;;
14209;SDS011;7188;56.070;12.698;2024-01-25T09:32:08;5.50;;;1.73;;
14209;SDS011;7188;56.070;12.698;2024-01-25T09:34:37;6.37;;;1.23;;
14209;SDS011;7188;56.070;12.698;2024-01-25T09:37:03;8.10;;;1.80;;
14209;SDS011;7188;56.070;12.698;2024-01-25T09:39:30;12.93;;;1.77;;
14209;SDS011;7188;56.070;12.698;2024-01-25T09:41:57;7.17;;;1.97;;
14209;SDS011;7188;56.070;12.698;2024-01-25T09:44:23;9.87;;;2.37;;
14209;SDS011;7188;56.070;12.698;2024-01-25T09:46:49;13.30;;;2.67;;
14209;SDS011;7188;56.070;12.698;2024-01-25T09:49:16;7.37;;;1.50;;
14209;SDS011;7188;56.070;12.698;2024-01-25T09:51:44;5.53;;;1.80;;
14209;SDS011;7188;56.070;12.698;2024-01-25T09:54:13;7.10;;;1.57;;
14209;SDS011;7188;56.070;12.698;2024-01-25T09:56:39;4.60;;;1.73;;
14209;SDS011;7188;56.070;12.698;2024-01-25T09:59:07;11.47;;;2.10;;
14209;SDS011;7188;56.070;12.698;2024-01-25T10:01:34;3.83;;;1.40;;
14209;SDS011;7188;56.070;12.698;2024-01-25T10:04:00;3.53;;;1.50;;
14209;SDS011;7188;56.070;12.698;2024-01-25T10:06:26;6.70;;;1.30;;
14209;SDS011;7188;56.070;12.698;2024-01-25T10:08:52;6.03;;;1.03;;
14209;SDS011;7188;56.070;12.698;2024-01-25T10:11:18;2.70;;;1.00;;
14209;SDS011;7188;56.070;12.698;2024-01-25T10:13:44;3.87;;;1.10;;
14209;SDS011;7188;56.070;12.698;2024-01-25T10:16:14;2.67;;;0.90;;
14209;SDS011;7188;56.070;12.698;2024-01-25T10:18:41;2.93;;;0.93;;
14209;SDS011;7188;56.070;12.698;2024-01-25T10:21:12;2.03;;;0.60;;
14209;SDS011;7188;56.070;12.698;2024-01-25T10:23:39;1.47;;;0.80;;
14209;SDS011;7188;56.070;12.698;2024-01-25T10:26:15;4.33;;;0.67;;
14209;SDS011;7188;56.070;12.698;2024-01-25T10:28:42;1.67;;;1.20;;
14209;SDS011;7188;56.070;12.698;2024-01-25T10:31:08;4.10;;;1.00;;
14209;SDS011;7188;56.070;12.698;2024-01-25T10:33:34;2.73;;;0.60;;
14209;SDS011;7188;56.070;12.698;2024-01-25T10:36:01;2.53;;;0.70;;
14209;SDS011;7188;56.070;12.698;2024-01-25T10:38:34;4.00;;;0.80;;
14209;SDS011;7188;56.070;12.698;2024-01-25T10:41:01;4.37;;;0.97;;
14209;SDS011;7188;56.070;12.698;2024-01-25T10:43:28;2.23;;;0.77;;
14209;SDS011;7188;56.070;12.698;2024-01-25T10:45:57;3.73;;;0.80;;
14209;SDS011;7188;56.070;12.698;2024-01-25T10:48:27;1.03;;;0.60;;
14209;SDS011;7188;56.070;12.698;2024-01-25T10:50:56;1.13;;;0.77;;
14209;SDS011;7188;56.070;12.698;2024-01-25T10:53:24;4.63;;;0.40;;
14209;SDS011;7188;56.070;12.698;2024-01-25T10:55:51;0.70;;;0.70;;
14209;SDS011;7188;56.070;12.698;2024-01-25T10:58:17;0.40;;;0.40;;
14209;SDS011;7188;56.070;12.698;2024-01-25T11:00:54;2.47;;;0.40;;
14209;SDS011;7188;56.070;12.698;2024-01-25T11:03:26;0.47;;;0.40;;
14209;SDS011;7188;56.070;12.698;2024-01-25T11:06:10;1.93;;;0.70;;
14209;SDS011;7188;56.070;12.698;2024-01-25T11:08:37;1.43;;;1.27;;
14209;SDS011;7188;56.070;12.698;2024-01-25T11:11:07;1.33;;;0.40;;
14209;SDS011;7188;56.070;12.698;2024-01-25T11:13:37;1.00;;;0.30;;
14209;SDS011;7188;56.070;12.698;2024-01-25T11:16:17;0.20;;;0.20;;
14209;SDS011;7188;56.070;12.698;2024-01-25T11:18:53;1.20;;;0.40;;
14209;SDS011;7188;56.070;12.698;2024-01-25T11:21:37;0.53;;;0.30;;
14209;SDS011;7188;56.070;12.698;2024-01-25T11:24:20;2.90;;;0.70;;
14209;SDS011;7188;56.070;12.698;2024-01-25T11:26:51;3.90;;;1.10;;
14209;SDS011;7188;56.070;12.698;2024-01-25T11:29:19;3.03;;;0.70;;
14209;SDS011;7188;56.070;12.698;2024-01-25T11:31:47;2.53;;;0.87;;
14209;SDS011;7188;56.070;12.698;2024-01-25T11:34:14;2.47;;;0.67;;
14209;SDS011;7188;56.070;12.698;2024-01-25T11:36:41;1.23;;;0.77;;
14209;SDS011;7188;56.070;12.698;2024-01-25T11:39:11;3.50;;;1.00;;
14209;SDS011;7188;56.070;12.698;2024-01-25T11:41:38;3.40;;;0.70;;
14209;SDS011;7188;56.070;12.698;2024-01-25T11:44:04;2.83;;;0.70;;
14209;SDS011;7188;56.070;12.698;2024-01-25T11:46:30;3.80;;;0.90;;
14209;SDS011;7188;56.070;12.698;2024-01-25T11:48:57;1.93;;;0.70;;
14209;SDS011;7188;56.070;12.698;2024-01-25T11:51:23;3.43;;;0.90;;
14209;SDS011;7188;56.070;12.698;2024-01-25T11:53:49;3.27;;;1.10;;
14209;SDS011;7188;56.070;12.698;2024-01-25T11:56:17;4.73;;;1.17;;
14209;SDS011;7188;56.070;12.698;2024-01-25T11:58:48;2.97;;;0.77;;
14209;SDS011;7188;56.070;12.698;2024-01-25T12:01:14;3.60;;;1.30;;
14209;SDS011;7188;56.070;12.698;2024-01-25T12:03:40;4.57;;;1.47;;
14209;SDS011;7188;56.070;12.698;2024-01-25T12:06:06;5.50;;;1.10;;
14209;SDS011;7188;56.070;12.698;2024-01-25T12:08:34;2.30;;;1.53;;
14209;SDS011;7188;56.070;12.698;2024-01-25T12:11:07;5.27;;;1.00;;
14209;SDS011;7188;56.070;12.698;2024-01-25T12:16:01;4.60;;;0.70;;
14209;SDS011;7188;56.070;12.698;2024-01-25T12:18:29;5.03;;;1.00;;
14209;SDS011;7188;56.070;12.698;2024-01-25T12:20:57;5.30;;;1.27;;
14209;SDS011;7188;56.070;12.698;2024-01-25T12:23:33;6.90;;;2.13;;
14209;SDS011;7188;56.070;12.698;2024-01-25T12:26:03;10.03;;;1.77;;
14209;SDS011;7188;56.070;12.698;2024-01-25T12:28:34;8.30;;;1.43;;
14209;SDS011;7188;56.070;12.698;2024-01-25T12:31:00;5.90;;;1.50;;
14209;SDS011;7188;56.070;12.698;2024-01-25T12:33:28;6.70;;;1.17;;
14209;SDS011;7188;56.070;12.698;2024-01-25T12:35:54;6.47;;;1.40;;
14209;SDS011;7188;56.070;12.698;2024-01-25T12:38:20;4.27;;;1.47;;
14209;SDS011;7188;56.070;12.698;2024-01-25T12:40:47;4.23;;;1.40;;
14209;SDS011;7188;56.070;12.698;2024-01-25T12:43:14;5.03;;;1.03;;
14209;SDS011;7188;56.070;12.698;2024-01-25T12:45:40;6.07;;;1.40;;
14209;SDS011;7188;56.070;12.698;2024-01-25T12:48:06;7.80;;;1.73;;
14209;SDS011;7188;56.070;12.698;2024-01-25T12:50:34;8.10;;;1.63;;
14209;SDS011;7188;56.070;12.698;2024-01-25T12:53:00;6.63;;;1.00;;
14209;SDS011;7188;56.070;12.698;2024-01-25T12:55:27;5.53;;;1.50;;
14209;SDS011;7188;56.070;12.698;2024-01-25T12:57:53;7.90;;;1.23;;
14209;SDS011;7188;56.070;12.698;2024-01-25T13:00:20;12.43;;;1.87;;
14209;SDS011;7188;56.070;12.698;2024-01-25T13:02:47;8.40;;;1.63;;
14209;SDS011;7188;56.070;12.698;2024-01-25T13:05:13;6.63;;;2.07;;
14209;SDS011;7188;56.070;12.698;2024-01-25T13:07:39;9.33;;;1.10;;
14209;SDS011;7188;56.070;12.698;2024-01-25T13:10:05;5.40;;;1.37;;
14209;SDS011;7188;56.070;12.698;2024-01-25T13:12:32;13.23;;;2.40;;
14209;SDS011;7188;56.070;12.698;2024-01-25T13:14:58;6.33;;;2.27;;
14209;SDS011;7188;56.070;12.698;2024-01-25T13:17:23;11.63;;;1.90;;
14209;SDS011;7188;56.070;12.698;2024-01-25T13:19:50;7.77;;;1.77;;
14209;SDS011;7188;56.070;12.698;2024-01-25T13:22:16;11.10;;;2.03;;
14209;SDS011;7188;56.070;12.698;2024-01-25T13:24:49;8.77;;;2.70;;
14209;SDS011;7188;56.070;12.698;2024-01-25T13:27:15;5.90;;;1.83;;
14209;SDS011;7188;56.070;12.698;2024-01-25T13:29:41;10.53;;;1.63;;
14209;SDS011;7188;56.070;12.698;2024-01-25T13:32:07;12.77;;;2.47;;
14209;SDS011;7188;56.070;12.698;2024-01-25T13:34:33;9.97;;;2.37;;
14209;SDS011;7188;56.070;12.698;2024-01-25T13:36:59;8.67;;;2.20;;
14209;SDS011;7188;56.070;12.698;2024-01-25T13:39:25;9.23;;;3.00;;
14209;SDS011;7188;56.070;12.698;2024-01-25T13:41:51;16.83;;;2.50;;
14209;SDS011;7188;56.070;12.698;2024-01-25T13:44:16;14.87;;;3.57;;
14209;SDS011;7188;56.070;12.698;2024-01-25T13:46:42;16.53;;;2.30;;
14209;SDS011;7188;56.070;12.698;2024-01-25T13:49:08;9.17;;;1.93;;
14209;SDS011;7188;56.070;12.698;2024-01-25T13:51:34;10.57;;;2.10;;
14209;SDS011;7188;56.070;12.698;2024-01-25T13:54:00;15.53;;;3.13;;
14209;SDS011;7188;56.070;12.698;2024-01-25T13:56:26;12.23;;;2.40;;
14209;SDS011;7188;56.070;12.698;2024-01-25T13:58:52;17.77;;;4.17;;
14209;SDS011;7188;56.070;12.698;2024-01-25T14:01:17;12.80;;;3.03;;
14209;SDS011;7188;56.070;12.698;2024-01-25T14:03:43;12.83;;;2.50;;
14209;SDS011;7188;56.070;12.698;2024-01-25T14:06:09;13.37;;;2.30;;
14209;SDS011;7188;56.070;12.698;2024-01-25T14:08:37;8.83;;;2.77;;
14209;SDS011;7188;56.070;12.698;2024-01-25T14:11:03;11.87;;;2.53;;
14209;SDS011;7188;56.070;12.698;2024-01-25T14:13:31;13.50;;;2.60;;
14209;SDS011;7188;56.070;12.698;2024-01-25T14:15:57;12.90;;;2.47;;
14209;SDS011;7188;56.070;12.698;2024-01-25T14:18:23;16.43;;;3.77;;
14209;SDS011;7188;56.070;12.698;2024-01-25T14:20:49;15.93;;;2.60;;
14209;SDS011;7188;56.070;12.698;2024-01-25T14:23:15;15.80;;;3.20;;
14209;SDS011;7188;56.070;12.698;2024-01-25T14:25:41;14.37;;;2.50;;
14209;SDS011;7188;56.070;12.698;2024-01-25T14:28:06;12.77;;;2.67;;
14209;SDS011;7188;56.070;12.698;2024-01-25T14:30:32;15.97;;;3.23;;
14209;SDS011;7188;56.070;12.698;2024-01-25T14:32:58;14.83;;;2.47;;
14209;SDS011;7188;56.070;12.698;2024-01-25T14:35:23;20.20;;;4.13;;
14209;SDS011;7188;56.070;12.698;2024-01-25T14:37:53;13.93;;;2.93;;
14209;SDS011;7188;56.070;12.698;2024-01-25T14:40:20;22.80;;;3.30;;
14209;SDS011;7188;56.070;12.698;2024-01-25T14:42:46;19.03;;;2.90;;
14209;SDS011;7188;56.070;12.698;2024-01-25T14:45:11;16.17;;;2.63;;
14209;SDS011;7188;56.070;12.698;2024-01-25T14:47:37;23.40;;;3.30;;
14209;SDS011;7188;56.070;12.698;2024-01-25T14:50:03;14.63;;;2.33;;